createdAt,value
2019-05-09T00:01:15.594Z,5.30
2019-05-09T00:03:44.339Z,4.93
2019-05-09T00:06:13.546Z,5.27
2019-05-09T00:08:44.084Z,4.10
2019-05-09T00:11:14.496Z,5.00
2019-05-09T00:13:43.542Z,3.10
2019-05-09T00:16:14.193Z,5.40
2019-05-09T00:18:43.899Z,3.60
2019-05-09T00:21:33.985Z,5.17
2019-05-09T00:24:03.481Z,4.10
2019-05-09T00:26:33.834Z,4.93
2019-05-09T00:29:05.835Z,3.17
2019-05-09T00:31:50.770Z,3.57
2019-05-09T00:34:26.973Z,3.47
2019-05-09T00:36:55.036Z,2.97
2019-05-09T00:39:23.678Z,3.63
2019-05-09T00:41:53.758Z,3.90
2019-05-09T00:44:25.377Z,3.13
2019-05-09T00:47:15.529Z,3.67
2019-05-09T00:49:43.664Z,3.83
2019-05-09T00:52:13.546Z,4.57
2019-05-09T00:54:43.674Z,4.27
2019-05-09T00:57:13.809Z,4.27
2019-05-09T00:59:41.922Z,3.87
2019-05-09T01:02:09.972Z,4.60
2019-05-09T01:04:37.979Z,3.77
2019-05-09T01:07:06.049Z,3.97
2019-05-09T01:09:34.056Z,3.10
2019-05-09T01:12:04.022Z,3.37
2019-05-09T01:14:33.771Z,3.20
2019-05-09T01:17:01.494Z,5.17
2019-05-09T01:19:29.518Z,3.27
2019-05-09T01:21:57.557Z,3.00
2019-05-09T01:24:25.679Z,2.77
2019-05-09T01:26:54.313Z,2.60
2019-05-09T01:29:23.089Z,3.13
2019-05-09T01:31:53.966Z,3.30
2019-05-09T01:34:24.774Z,4.10
2019-05-09T01:37:06.399Z,3.37
2019-05-09T01:39:35.386Z,3.33
2019-05-09T01:42:03.528Z,3.53
2019-05-09T01:44:33.463Z,3.63
2019-05-09T01:47:03.456Z,3.63
2019-05-09T01:49:34.182Z,3.63
2019-05-09T01:52:03.306Z,4.40
2019-05-09T01:54:33.250Z,4.37
2019-05-09T01:57:03.357Z,3.87
2019-05-09T01:59:33.653Z,4.20
2019-05-09T02:02:06.932Z,4.93
2019-05-09T02:04:33.248Z,4.70
2019-05-09T02:07:00.613Z,5.20
2019-05-09T02:09:28.841Z,6.27
2019-05-09T02:11:57.126Z,6.57
2019-05-09T02:14:34.422Z,6.93
2019-05-09T02:17:10.795Z,6.77
2019-05-09T02:19:40.845Z,9.13
2019-05-09T02:22:26.723Z,7.30
2019-05-09T02:24:54.688Z,7.53
2019-05-09T02:27:23.838Z,7.10
2019-05-09T02:29:51.884Z,6.37
2019-05-09T02:32:19.854Z,5.83
2019-05-09T02:34:48.008Z,6.80
2019-05-09T02:37:18.758Z,6.03
2019-05-09T02:39:48.881Z,6.00
2019-05-09T02:42:15.362Z,6.40
2019-05-09T02:44:43.395Z,7.57
2019-05-09T02:47:18.028Z,7.43
2019-05-09T02:49:48.619Z,8.33
2019-05-09T02:52:19.457Z,7.27
2019-05-09T02:54:45.689Z,7.20
2019-05-09T02:57:13.975Z,7.27
2019-05-09T03:00:04.077Z,8.27
2019-05-09T03:02:38.459Z,7.77
2019-05-09T03:05:08.737Z,8.10
2019-05-09T03:07:51.459Z,7.73
2019-05-09T03:10:20.482Z,8.27
2019-05-09T03:12:50.062Z,8.47
2019-05-09T03:15:18.903Z,9.17
2019-05-09T03:17:49.437Z,9.93
2019-05-09T03:20:39.242Z,10.10
2019-05-09T03:23:09.082Z,11.20
2019-05-09T03:25:40.523Z,11.43
2019-05-09T03:28:13.348Z,11.87
2019-05-09T03:30:42.393Z,12.30
2019-05-09T03:33:10.761Z,12.37
2019-05-09T03:35:38.918Z,12.87
2019-05-09T03:38:08.109Z,13.43
2019-05-09T03:40:37.736Z,14.53
2019-05-09T03:43:07.954Z,13.43
2019-05-09T03:45:41.581Z,15.50
2019-05-09T03:48:15.281Z,13.90
2019-05-09T03:50:43.313Z,15.50
2019-05-09T03:53:11.283Z,16.27
2019-05-09T03:55:39.421Z,15.53
2019-05-09T03:58:11.050Z,15.90
2019-05-09T04:00:39.141Z,16.23
2019-05-09T04:03:08.175Z,16.77
2019-05-09T04:05:37.665Z,16.10
2019-05-09T04:08:18.538Z,16.83
2019-05-09T04:10:50.116Z,15.87
2019-05-09T04:13:17.983Z,15.80
2019-05-09T04:15:47.730Z,15.00
2019-05-09T04:18:17.669Z,15.17
2019-05-09T04:20:48.062Z,15.40
2019-05-09T04:23:15.325Z,16.13
2019-05-09T04:25:49.721Z,14.17
2019-05-09T04:28:17.810Z,15.27
2019-05-09T04:30:47.799Z,16.80
2019-05-09T04:33:17.587Z,14.77
2019-05-09T04:35:47.411Z,17.77
2019-05-09T04:38:14.911Z,17.80
2019-05-09T04:40:44.919Z,19.20
2019-05-09T04:43:18.831Z,17.57
2019-05-09T04:45:53.347Z,18.53
2019-05-09T04:48:33.839Z,18.57
2019-05-09T04:51:04.796Z,18.97
2019-05-09T04:53:32.834Z,17.87
2019-05-09T04:56:21.642Z,18.50
2019-05-09T04:58:49.814Z,19.40
2019-05-09T05:01:28.181Z,20.30
2019-05-09T05:03:57.384Z,20.33
2019-05-09T05:06:27.917Z,20.77
2019-05-09T05:08:55.358Z,25.57
2019-05-09T05:11:23.384Z,23.47
2019-05-09T05:13:51.549Z,24.50
2019-05-09T05:16:19.616Z,27.03
2019-05-09T05:18:47.887Z,27.40
2019-05-09T05:21:19.963Z,28.73
2019-05-09T05:24:08.080Z,26.00
2019-05-09T05:26:37.830Z,26.40
2019-05-09T05:29:05.334Z,28.00
2019-05-09T05:31:33.388Z,29.80
2019-05-09T05:34:08.146Z,29.27
2019-05-09T05:36:35.634Z,28.60
2019-05-09T05:39:07.517Z,29.60
2019-05-09T05:41:37.802Z,29.80
2019-05-09T05:44:05.702Z,31.60
2019-05-09T05:46:52.788Z,30.13
2019-05-09T05:49:20.958Z,31.43
2019-05-09T05:51:52.036Z,30.40
2019-05-09T05:54:20.686Z,31.40
2019-05-09T05:56:48.670Z,32.40
2019-05-09T05:59:18.331Z,31.40
2019-05-09T06:01:47.934Z,32.40
2019-05-09T06:04:18.336Z,31.43
2019-05-09T06:06:47.805Z,32.67
2019-05-09T06:09:15.493Z,31.83
2019-05-09T06:11:48.260Z,29.50
2019-05-09T06:14:18.165Z,30.63
2019-05-09T06:16:48.324Z,29.93
2019-05-09T06:19:17.580Z,31.43
2019-05-09T06:21:48.524Z,30.63
2019-05-09T06:24:17.718Z,30.00
2019-05-09T06:26:47.940Z,31.73
2019-05-09T06:29:17.745Z,29.17
2019-05-09T06:31:48.163Z,32.30
2019-05-09T06:37:38.279Z,30.67
2019-05-09T06:40:51.312Z,30.50
2019-05-09T06:43:21.501Z,29.53
2019-05-09T06:46:18.103Z,30.43
2019-05-09T06:48:45.353Z,31.27
2019-05-09T06:51:13.366Z,31.00
2019-05-09T06:53:41.400Z,31.87
2019-05-09T06:56:10.237Z,31.03
2019-05-09T06:58:38.534Z,30.93
2019-05-09T07:01:25.758Z,31.03
2019-05-09T07:03:57.647Z,29.30
2019-05-09T07:06:41.973Z,30.37
2019-05-09T07:09:19.109Z,34.53
2019-05-09T07:11:48.654Z,31.10
2019-05-09T07:14:33.454Z,32.37
2019-05-09T07:17:00.263Z,30.47
2019-05-09T07:19:28.333Z,31.80
2019-05-09T07:22:24.371Z,31.50
2019-05-09T07:25:14.264Z,34.20
2019-05-09T07:27:42.397Z,31.80
2019-05-09T07:30:20.368Z,34.17
2019-05-09T07:32:57.964Z,32.33
2019-05-09T07:35:27.705Z,34.53
2019-05-09T07:37:57.728Z,34.43
2019-05-09T07:40:29.794Z,34.90
2019-05-09T07:42:54.842Z,34.53
2019-05-09T07:45:22.917Z,34.40
2019-05-09T07:47:50.979Z,33.47
2019-05-09T07:50:19.259Z,33.40
2019-05-09T07:52:47.818Z,34.47
2019-05-09T07:55:18.122Z,33.50
2019-05-09T07:57:54.324Z,33.47
2019-05-09T08:00:18.423Z,32.77
2019-05-09T08:02:47.715Z,34.27
2019-05-09T08:05:17.464Z,31.53
2019-05-09T08:07:48.427Z,32.90
2019-05-09T08:10:17.448Z,32.90
2019-05-09T08:12:45.191Z,32.40
2019-05-09T08:15:16.856Z,32.03
2019-05-09T08:17:43.199Z,31.03
2019-05-09T08:20:13.810Z,32.50
2019-05-09T08:22:46.374Z,31.77
2019-05-09T08:25:13.011Z,31.03
2019-05-09T08:27:41.121Z,29.70
2019-05-09T08:30:09.276Z,31.33
2019-05-09T08:32:37.846Z,28.97
2019-05-09T08:35:08.207Z,28.03
2019-05-09T08:37:35.871Z,28.10
2019-05-09T08:40:03.967Z,29.27
2019-05-09T08:42:32.116Z,29.60
2019-05-09T08:45:00.237Z,28.57
2019-05-09T08:47:28.273Z,29.67
2019-05-09T08:50:07.995Z,28.70
2019-05-09T08:52:37.638Z,28.53
2019-05-09T08:55:08.161Z,28.53
2019-05-09T08:57:37.530Z,28.90
2019-05-09T09:00:08.192Z,27.27
2019-05-09T09:02:37.687Z,27.40
2019-05-09T09:05:08.317Z,27.63
2019-05-09T09:07:37.759Z,28.07
2019-05-09T09:10:05.172Z,27.60
2019-05-09T09:12:34.510Z,25.77
2019-05-09T09:15:03.017Z,27.00
2019-05-09T09:17:31.194Z,26.17
2019-05-09T09:19:59.253Z,25.80
2019-05-09T09:22:28.400Z,25.90
2019-05-09T09:24:58.694Z,25.17
2019-05-09T09:27:27.352Z,25.20
2019-05-09T09:29:58.619Z,25.60
2019-05-09T09:32:27.914Z,27.60
2019-05-09T09:34:54.884Z,26.53
2019-05-09T09:37:22.930Z,28.87
2019-05-09T09:39:50.986Z,26.87
2019-05-09T09:42:22.010Z,24.73
2019-05-09T09:44:50.052Z,24.10
2019-05-09T09:47:23.008Z,23.27
2019-05-09T10:07:22.849Z,19.83
2019-05-09T10:38:04.890Z,12.60
2019-05-09T10:40:32.955Z,10.33
2019-05-09T10:46:47.517Z,12.23
2019-05-09T10:49:01.217Z,9.93
2019-05-09T10:51:29.290Z,18.00
2019-05-09T10:53:58.783Z,16.57
2019-05-09T10:56:28.062Z,9.50
2019-05-09T10:58:58.264Z,9.47
2019-05-09T11:01:26.084Z,12.13
2019-05-09T11:03:54.255Z,10.60
2019-05-09T11:06:22.413Z,8.07
2019-05-09T11:08:50.458Z,8.80
2019-05-09T11:11:18.651Z,9.10
2019-05-09T11:13:48.253Z,11.07
2019-05-09T11:16:18.406Z,8.83
2019-05-09T11:18:48.293Z,8.10
2019-05-09T11:21:18.861Z,9.97
2019-05-09T11:23:45.783Z,7.50
2019-05-09T11:26:17.869Z,6.57
2019-05-09T11:28:46.276Z,8.27
2019-05-09T11:34:23.877Z,9.83
2019-05-09T11:36:52.091Z,16.73
2019-05-09T11:39:35.542Z,6.93
2019-05-09T11:41:50.060Z,7.17
2019-05-09T11:44:18.445Z,8.23
2019-05-09T11:46:47.746Z,4.57
2019-05-09T11:49:17.989Z,6.07
2019-05-09T11:51:48.227Z,5.33
2019-05-09T11:54:17.201Z,9.23
2019-05-09T11:56:48.038Z,3.93
2019-05-09T11:59:15.505Z,4.90
2019-05-09T12:01:43.511Z,4.80
2019-05-09T12:04:11.564Z,4.30
2019-05-09T12:06:39.570Z,4.00
2019-05-09T12:09:08.707Z,5.13
2019-05-09T12:11:40.066Z,5.23
2019-05-09T12:14:08.855Z,5.67
2019-05-09T12:16:38.084Z,5.83
2019-05-09T12:19:06.322Z,4.60
2019-05-09T12:21:38.533Z,4.27
2019-05-09T12:24:04.333Z,5.87
2019-05-09T12:26:32.349Z,2.37
2019-05-09T12:29:00.462Z,7.53
2019-05-09T12:31:29.094Z,3.17
2019-05-09T12:33:59.430Z,5.90
2019-05-09T12:36:28.661Z,3.37
2019-05-09T12:38:59.075Z,4.90
2019-05-09T12:41:30.944Z,4.30
2019-05-09T12:43:57.447Z,2.57
2019-05-09T12:46:28.173Z,5.70
2019-05-09T12:48:55.397Z,5.07
2019-05-09T12:51:23.422Z,3.93
2019-05-09T12:53:53.026Z,3.83
2019-05-09T12:56:21.087Z,3.57
2019-05-09T12:58:49.578Z,3.80
2019-05-09T13:01:18.853Z,2.60
2019-05-09T13:03:48.440Z,3.50
2019-05-09T13:06:20.189Z,5.87
2019-05-09T13:08:47.997Z,3.83
2019-05-09T13:11:18.566Z,2.63
2019-05-09T13:13:47.922Z,3.83
2019-05-09T13:16:22.906Z,2.60
2019-05-09T13:19:05.290Z,3.93
2019-05-09T13:21:33.479Z,4.67
2019-05-09T13:24:01.747Z,4.03
2019-05-09T13:26:31.362Z,2.93
2019-05-09T13:28:59.576Z,3.03
2019-05-09T13:31:29.434Z,4.57
2019-05-09T13:33:58.330Z,5.07
2019-05-09T13:36:28.453Z,5.57
2019-05-09T13:39:03.875Z,5.13
2019-05-09T13:41:26.135Z,6.93
2019-05-09T13:43:59.168Z,4.80
2019-05-09T13:46:24.064Z,6.80
2019-05-09T13:49:25.236Z,2.17
2019-05-09T13:52:00.589Z,2.30
2019-05-09T13:54:22.962Z,3.53
2019-05-09T13:56:57.948Z,2.90
2019-05-09T13:59:23.709Z,5.67
2019-05-09T14:01:51.784Z,6.57
2019-05-09T14:04:19.757Z,3.13
2019-05-09T14:06:48.765Z,4.53
2019-05-09T14:09:19.644Z,3.53
2019-05-09T14:11:47.949Z,4.70
2019-05-09T14:14:17.941Z,9.27
2019-05-09T14:16:47.913Z,7.23
2019-05-09T14:19:31.748Z,6.80
2019-05-09T14:21:47.964Z,2.13
2019-05-09T14:24:18.662Z,3.90
2019-05-09T14:26:44.765Z,6.03
2019-05-09T14:29:13.510Z,8.10
2019-05-09T14:31:42.010Z,5.47
2019-05-09T14:34:10.126Z,3.60
2019-05-09T14:36:40.286Z,4.03
2019-05-09T14:39:09.301Z,4.33
2019-05-09T14:41:38.996Z,6.17
2019-05-09T14:44:09.409Z,5.73
2019-05-09T14:46:39.188Z,10.73
2019-05-09T14:49:07.952Z,5.67
2019-05-09T14:51:38.013Z,6.97
2019-05-09T14:54:08.423Z,5.40
2019-05-09T14:56:41.163Z,2.80
2019-05-09T14:59:05.442Z,3.60
2019-05-09T15:01:33.525Z,2.63
2019-05-09T15:04:01.568Z,2.87
2019-05-09T15:06:30.083Z,3.07
2019-05-09T15:08:58.383Z,5.57
2019-05-09T15:11:28.145Z,7.87
2019-05-09T15:13:58.452Z,7.83
2019-05-09T15:16:28.280Z,5.10
2019-05-09T15:18:58.199Z,3.20
2019-05-09T15:21:25.655Z,4.93
2019-05-09T15:23:53.688Z,5.27
2019-05-09T15:26:21.857Z,5.30
2019-05-09T15:28:50.001Z,3.63
2019-05-09T15:31:18.415Z,3.53
2019-05-09T15:33:48.614Z,3.40
2019-05-09T15:36:19.003Z,3.97
2019-05-09T15:38:48.464Z,4.57
2019-05-09T15:41:18.262Z,2.20
2019-05-09T15:43:48.287Z,5.03
2019-05-09T15:46:20.853Z,7.07
2019-05-09T15:48:48.888Z,7.20
2019-05-09T15:51:18.016Z,6.50
2019-05-09T15:53:48.511Z,8.57
2019-05-09T15:56:15.909Z,4.83
2019-05-09T15:58:44.016Z,5.97
2019-05-09T16:01:12.178Z,5.73
2019-05-09T16:03:40.227Z,9.30
2019-05-09T16:06:09.076Z,8.20
2019-05-09T16:08:38.091Z,4.33
2019-05-09T16:11:08.550Z,4.63
2019-05-09T16:13:37.290Z,6.93
2019-05-09T16:16:05.617Z,7.93
2019-05-09T16:18:34.864Z,5.53
2019-05-09T16:21:02.919Z,4.97
2019-05-09T16:23:30.985Z,5.00
2019-05-09T16:25:58.977Z,5.40
2019-05-09T16:28:27.050Z,6.03
2019-05-09T16:30:55.123Z,6.10
2019-05-09T16:33:23.153Z,9.40
2019-05-09T16:35:52.872Z,7.83
2019-05-09T16:38:21.112Z,7.70
2019-05-09T16:40:49.183Z,6.40
2019-05-09T16:43:17.785Z,7.83
2019-05-09T16:45:47.671Z,13.00
2019-05-09T16:48:17.853Z,11.80
2019-05-09T16:50:57.782Z,10.80
2019-05-09T16:53:35.169Z,6.43
2019-05-09T16:56:03.275Z,6.27
2019-05-09T16:58:32.328Z,7.03
2019-05-09T17:01:00.594Z,6.60
2019-05-09T17:03:28.666Z,10.33
2019-05-09T17:05:58.300Z,8.30
2019-05-09T17:08:28.212Z,6.67
2019-05-09T17:10:58.670Z,12.23
2019-05-09T17:13:28.691Z,14.23
2019-05-09T17:15:59.685Z,5.90
2019-05-09T17:18:28.327Z,6.93
2019-05-09T17:21:18.697Z,6.03
2019-05-09T17:23:44.921Z,9.30
2019-05-09T17:26:13.013Z,9.87
2019-05-09T17:28:41.086Z,8.30
2019-05-09T17:31:09.426Z,8.23
2019-05-09T17:33:38.004Z,8.23
2019-05-09T17:36:06.449Z,7.30
2019-05-09T17:38:34.579Z,10.57
2019-05-09T17:41:02.626Z,12.73
2019-05-09T17:43:30.766Z,6.70
2019-05-09T17:45:59.388Z,18.83
2019-05-09T17:48:28.522Z,13.97
2019-05-09T17:50:57.930Z,9.23
2019-05-09T17:53:28.626Z,4.70
2019-05-09T17:55:58.607Z,7.93
2019-05-09T17:58:32.478Z,5.90
2019-05-09T18:00:57.651Z,4.83
2019-05-09T18:03:28.865Z,4.63
2019-05-09T18:05:57.707Z,6.10
2019-05-09T18:08:31.960Z,5.63
2019-05-09T18:11:00.089Z,5.03
2019-05-09T18:13:30.634Z,6.27
2019-05-09T18:16:18.751Z,9.43
2019-05-09T18:18:47.903Z,14.30
2019-05-09T18:21:15.232Z,17.50
2019-05-09T18:23:43.294Z,22.27
2019-05-09T18:26:11.311Z,28.23
2019-05-09T18:28:48.788Z,18.87
2019-05-09T18:31:16.844Z,32.17
2019-05-09T18:34:07.753Z,43.23
2019-05-09T18:36:38.233Z,48.93
2019-05-09T18:39:07.750Z,35.50
2019-05-09T18:41:59.754Z,18.03
2019-05-09T18:44:27.824Z,11.20
2019-05-09T18:46:57.758Z,10.67
2019-05-09T18:49:49.691Z,24.43
2019-05-09T18:52:17.750Z,18.63
2019-05-09T18:54:45.923Z,30.00
2019-05-09T18:57:14.004Z,33.43
2019-05-09T18:59:42.081Z,23.17
2019-05-09T19:02:10.183Z,65.97
2019-05-09T19:04:38.598Z,68.53
2019-05-09T19:07:21.251Z,65.50
2019-05-09T19:09:36.511Z,62.47
2019-05-09T19:12:04.587Z,39.93
2019-05-09T19:14:32.690Z,36.00
2019-05-09T19:17:18.673Z,46.97
2019-05-09T19:19:55.631Z,50.00
2019-05-09T19:22:23.776Z,49.47
2019-05-09T19:25:07.549Z,34.60
2019-05-09T19:27:35.648Z,19.10
2019-05-09T19:30:04.050Z,18.57
2019-05-09T19:32:32.132Z,15.67
2019-05-09T19:35:00.308Z,14.03
2019-05-09T19:37:28.377Z,11.83
2019-05-09T19:39:56.564Z,13.13
2019-05-09T19:42:24.833Z,9.67
2019-05-09T19:48:02.206Z,5.33
2019-05-09T19:50:30.281Z,7.20
2019-05-09T19:52:58.293Z,6.40
2019-05-09T19:55:26.340Z,5.93
2019-05-09T19:57:54.375Z,7.30
2019-05-09T20:00:22.544Z,9.43
2019-05-09T20:02:50.660Z,8.67
2019-05-09T20:05:18.704Z,10.97
2019-05-09T20:07:46.920Z,7.03
2019-05-09T20:10:33.165Z,7.30
2019-05-09T20:13:25.049Z,4.53
2019-05-09T20:15:53.236Z,4.70
2019-05-09T20:18:21.629Z,5.83
2019-05-09T20:20:49.642Z,4.37
2019-05-09T20:23:17.866Z,6.03
2019-05-09T20:25:46.042Z,7.17
2019-05-09T20:28:14.125Z,10.63
2019-05-09T20:30:42.181Z,9.70
2019-05-09T20:33:10.271Z,7.00
2019-05-09T20:35:39.073Z,8.57
2019-05-09T20:38:07.789Z,11.40
2019-05-09T20:40:36.104Z,8.47
2019-05-09T20:43:04.532Z,9.00
2019-05-09T20:45:32.892Z,9.70
2019-05-09T20:48:01.154Z,9.50
2019-05-09T20:50:29.564Z,7.53
2019-05-09T20:53:09.144Z,6.67
2019-05-09T20:55:28.503Z,5.30
2019-05-09T20:57:56.712Z,6.00
2019-05-09T21:00:25.120Z,4.43
2019-05-09T21:02:53.471Z,7.93
2019-05-09T21:05:21.902Z,5.80
2019-05-09T21:07:50.087Z,3.97
2019-05-09T21:10:18.309Z,6.30
2019-05-09T21:12:46.855Z,7.30
2019-05-09T21:15:15.300Z,6.70
2019-05-09T21:17:43.641Z,9.03
2019-05-09T21:20:12.266Z,6.10
2019-05-09T21:22:40.806Z,4.60
2019-05-09T21:25:09.468Z,7.67
2019-05-09T21:27:37.790Z,16.00
2019-05-09T21:30:06.258Z,11.50
2019-05-09T21:32:34.651Z,12.87
2019-05-09T21:35:02.861Z,8.70
2019-05-09T21:37:31.037Z,6.97
2019-05-09T21:39:59.751Z,7.87
2019-05-09T21:42:28.124Z,4.30
2019-05-09T21:44:56.499Z,5.27
2019-05-09T21:47:24.499Z,5.53
2019-05-09T21:49:52.573Z,4.50
2019-05-09T21:52:20.727Z,3.97
2019-05-09T21:54:48.914Z,5.93
2019-05-09T21:57:17.515Z,6.00
2019-05-09T21:59:45.463Z,6.87
2019-05-09T22:02:13.903Z,5.63
2019-05-09T22:04:41.954Z,11.50
2019-05-09T22:07:10.291Z,12.93
2019-05-09T22:09:38.565Z,19.40
2019-05-09T22:12:06.655Z,7.70
2019-05-09T22:14:34.701Z,6.57
2019-05-09T22:17:07.935Z,5.50
2019-05-09T22:19:35.982Z,7.77
2019-05-09T22:22:04.010Z,7.63
2019-05-09T22:24:32.145Z,11.57
2019-05-09T22:27:00.192Z,12.57
2019-05-09T22:29:28.230Z,11.73
2019-05-09T22:31:56.291Z,8.80
2019-05-09T22:34:24.319Z,7.87
2019-05-09T22:36:52.360Z,6.60
2019-05-09T22:39:20.882Z,7.30
2019-05-09T22:41:48.970Z,8.93
2019-05-09T22:44:17.118Z,9.57
2019-05-09T22:46:45.166Z,6.30
2019-05-09T22:49:13.207Z,11.27
2019-05-09T22:51:41.275Z,9.80
2019-05-09T22:54:12.887Z,7.27
2019-05-09T22:56:39.066Z,11.57
2019-05-09T22:59:07.093Z,13.97
2019-05-09T23:01:35.823Z,9.07
2019-05-09T23:04:03.789Z,9.00
2019-05-09T23:06:32.071Z,5.87
2019-05-09T23:09:00.411Z,6.60
2019-05-09T23:11:28.549Z,8.07
2019-05-09T23:13:56.614Z,6.23
2019-05-09T23:16:25.450Z,10.47
2019-05-09T23:18:53.650Z,7.47
2019-05-09T23:21:22.101Z,9.47
2019-05-09T23:23:53.473Z,7.03
2019-05-09T23:26:22.411Z,7.43
2019-05-09T23:28:50.453Z,7.70
2019-05-09T23:31:23.115Z,6.90
2019-05-09T23:33:51.101Z,8.47
2019-05-09T23:36:19.141Z,7.90
2019-05-09T23:39:05.017Z,8.67
2019-05-09T23:41:33.064Z,6.37
2019-05-09T23:44:01.214Z,5.57
2019-05-09T23:46:29.271Z,5.37
2019-05-09T23:48:57.199Z,9.30
2019-05-09T23:51:28.371Z,4.93
2019-05-09T23:53:55.489Z,7.23
2019-05-09T23:56:41.381Z,9.50
2019-05-09T23:59:27.374Z,5.60
